Time;durP1;ratioP1;P1;durP2;ratioP2;P2;SDS_P1;SDS_P2;PMS_P1;PMS_P2;Temp;Humidity;BMP_temperature;BMP_pressure;BME280_temperature;BME280_humidity;BME280_pressure;Samples;Min_cycle;Max_cycle;Signal;HPM_P1;HPM_P2
2021/09/24 00:01:10;;;;;;;6.63;3.63;;;;;;;13.46;69.02;100287.03;5116460;28;20115;-60
2021/09/24 00:03:36;;;;;;;8.55;4.45;;;;;;;13.43;69.32;100297.16;5116370;28;20049;-60
2021/09/24 00:06:02;;;;;;;8.52;4.65;;;;;;;13.45;69.34;100293.91;5116300;28;20035;-60
2021/09/24 00:08:28;;;;;;;14.40;5.43;;;;;;;13.43;68.73;100290.72;5116294;28;20363;-60
2021/09/24 00:10:54;;;;;;;10.95;4.15;;;;;;;13.41;68.83;100293.16;5116405;28;20036;-60
2021/09/24 00:13:20;;;;;;;7.65;4.20;;;;;;;13.42;68.76;100289.09;5116260;28;20035;-60
2021/09/24 00:15:46;;;;;;;9.32;4.03;;;;;;;13.43;68.96;100296.38;5116137;28;20031;-60
2021/09/24 00:18:11;;;;;;;8.07;3.83;;;;;;;13.42;68.71;100289.94;5100719;28;20051;-60
2021/09/24 00:20:37;;;;;;;7.85;3.92;;;;;;;13.40;68.38;100286.69;5115737;28;20040;-61
2021/09/24 00:23:04;;;;;;;11.23;4.78;;;;;;;13.42;68.31;100278.63;5116147;28;20044;-60
2021/09/24 00:25:30;;;;;;;6.97;3.90;;;;;;;13.40;68.64;100272.59;5115986;28;20035;-60
2021/09/24 00:27:57;;;;;;;7.43;3.90;;;;;;;13.40;68.96;100269.75;5116238;28;20084;-60
2021/09/24 00:30:22;;;;;;;9.57;3.88;;;;;;;13.40;68.50;100266.13;5111478;28;20020;-60
2021/09/24 00:32:48;;;;;;;10.77;4.82;;;;;;;13.37;68.72;100259.31;5110363;28;20038;-60
2021/09/24 00:35:13;;;;;;;6.95;4.07;;;;;;;13.35;68.15;100250.47;5115717;28;20084;-60
2021/09/24 00:37:38;;;;;;;8.13;4.70;;;;;;;13.35;68.54;100250.47;5114952;28;20027;-60
2021/09/24 00:40:06;;;;;;;7.50;4.25;;;;;;;13.37;68.71;100248.03;5115634;28;20581;-59
2021/09/24 00:42:31;;;;;;;8.60;4.20;;;;;;;13.35;68.26;100244.03;5115463;28;20035;-61
2021/09/24 00:44:57;;;;;;;8.27;3.90;;;;;;;13.37;68.78;100242.38;5115650;28;20042;-59
2021/09/24 00:47:22;;;;;;;9.57;3.97;;;;;;;13.41;68.13;100236.69;5115631;28;20035;-60
2021/09/24 00:49:49;;;;;;;6.47;4.15;;;;;;;13.36;68.51;100234.34;5115974;28;20032;-60
2021/09/24 00:52:16;;;;;;;9.15;4.05;;;;;;;13.34;67.79;100222.69;5115767;28;20059;-60
2021/09/24 00:54:45;;;;;;;5.85;4.25;;;;;;;13.33;68.28;100213.41;5115728;28;20119;-60
2021/09/24 00:57:10;;;;;;;9.10;4.63;;;;;;;13.36;67.94;100206.91;5116026;28;20377;-60
2021/09/24 00:59:36;;;;;;;9.32;4.88;;;;;;;13.35;67.74;100194.03;5115306;28;20039;-60
2021/09/24 01:02:01;;;;;;;6.97;4.88;;;;;;;13.36;68.81;100189.19;5115301;28;20081;-60
2021/09/24 01:04:27;;;;;;;6.05;4.07;;;;;;;13.36;67.93;100192.00;5112634;28;20431;-60
2021/09/24 01:06:52;;;;;;;6.95;4.05;;;;;;;13.34;68.04;100200.91;5113391;28;20035;-60
2021/09/24 01:09:18;;;;;;;10.45;4.15;;;;;;;13.30;68.19;100203.78;5113595;28;20028;-59
2021/09/24 01:11:45;;;;;;;11.32;4.72;;;;;;;13.33;68.54;100218.25;5113740;28;20039;-59
2021/09/24 01:14:10;;;;;;;8.45;4.72;;;;;;;13.39;68.06;100227.84;5113782;28;20081;-59
2021/09/24 01:16:36;;;;;;;7.95;4.15;;;;;;;13.41;68.26;100242.31;5113139;28;20052;-60
2021/09/24 01:19:01;;;;;;;6.10;3.80;;;;;;;13.40;67.94;100235.09;5114063;28;20104;-60
2021/09/24 01:21:26;;;;;;;8.95;5.10;;;;;;;13.43;68.04;100234.25;5115571;28;20073;-60
2021/09/24 01:23:52;;;;;;;6.72;4.22;;;;;;;13.46;67.64;100222.91;5115318;28;20031;-60
2021/09/24 01:26:18;;;;;;;7.75;4.25;;;;;;;13.46;67.13;100210.81;5115545;28;20166;-60
2021/09/24 01:28:44;;;;;;;8.52;4.47;;;;;;;13.49;67.93;100212.78;5115385;28;20043;-60
2021/09/24 01:31:11;;;;;;;8.70;4.68;;;;;;;13.50;67.32;100194.63;5115897;28;20028;-60
2021/09/24 01:33:42;;;;;;;8.88;3.90;;;;;;;13.52;67.70;100203.47;5113849;28;20066;-60
2021/09/24 01:36:07;;;;;;;11.20;4.80;;;;;;;13.52;67.52;100198.59;5097475;28;20035;-60
2021/09/24 01:38:33;;;;;;;6.70;4.50;;;;;;;13.56;66.63;100199.34;5115170;28;20304;-60
2021/09/24 01:40:58;;;;;;;8.65;4.03;;;;;;;13.57;66.94;100197.31;5092270;28;20036;-60
2021/09/24 01:43:24;;;;;;;5.95;3.97;;;;;;;13.53;67.01;100194.56;5113425;28;20055;-60
2021/09/24 01:45:49;;;;;;;6.75;4.65;;;;;;;13.55;67.13;100196.94;5093625;28;20036;-60
2021/09/24 01:48:14;;;;;;;8.43;4.40;;;;;;;13.53;66.61;100186.09;5114388;28;20114;-60
2021/09/24 01:50:40;;;;;;;8.75;4.35;;;;;;;13.49;67.51;100193.81;5119217;28;20106;-60
2021/09/24 01:53:05;;;;;;;7.63;4.03;;;;;;;13.45;67.52;100189.47;5119411;28;20419;-59
2021/09/24 01:55:30;;;;;;;10.30;4.22;;;;;;;13.42;67.61;100201.56;5118656;28;20031;-60
2021/09/24 01:57:56;;;;;;;7.80;4.55;;;;;;;13.37;67.77;100202.06;5119117;28;20423;-60
2021/09/24 02:00:21;;;;;;;8.60;4.22;;;;;;;13.33;67.63;100192.84;5119018;28;20039;-60
2021/09/24 02:02:46;;;;;;;6.50;3.92;;;;;;;13.30;67.78;100192.47;5118198;28;20042;-60
2021/09/24 02:05:12;;;;;;;10.38;4.68;;;;;;;13.33;67.82;100185.19;5118656;28;20063;-60
2021/09/24 02:07:37;;;;;;;7.28;3.97;;;;;;;13.35;67.51;100187.59;5118780;28;20028;-60
2021/09/24 02:10:06;;;;;;;7.50;4.13;;;;;;;13.30;67.47;100181.19;5118648;28;20035;-60
2021/09/24 02:12:32;;;;;;;7.50;4.40;;;;;;;13.28;68.01;100180.03;5117005;28;20039;-60
2021/09/24 02:14:57;;;;;;;9.80;5.28;;;;;;;13.24;67.55;100182.91;5118550;28;20035;-60
2021/09/24 02:17:23;;;;;;;6.97;3.60;;;;;;;13.23;67.68;100181.31;5118456;28;20112;-60
2021/09/24 02:19:48;;;;;;;9.18;4.70;;;;;;;13.23;67.66;100186.16;5116169;28;20335;-60
2021/09/24 02:22:13;;;;;;;9.68;4.30;;;;;;;13.18;68.10;100178.16;5118548;28;20160;-60
2021/09/24 02:24:39;;;;;;;11.25;4.70;;;;;;;13.18;68.00;100166.88;5118162;28;20036;-60
2021/09/24 02:27:04;;;;;;;8.73;4.40;;;;;;;13.14;67.65;100168.91;5118208;28;20039;-60
2021/09/24 02:29:29;;;;;;;6.90;4.50;;;;;;;13.07;67.88;100161.34;5118355;28;20031;-60
2021/09/24 02:31:55;;;;;;;9.10;4.30;;;;;;;13.04;68.29;100169.88;5117983;28;20047;-60
2021/09/24 02:34:21;;;;;;;6.57;4.30;;;;;;;13.02;68.02;100158.22;5096819;28;20027;-60
2021/09/24 02:36:47;;;;;;;9.07;4.50;;;;;;;13.02;68.40;100169.50;5109100;28;20023;-61
2021/09/24 02:39:13;;;;;;;9.60;4.45;;;;;;;12.99;68.34;100162.69;5118006;28;20415;-60
2021/09/24 02:41:38;;;;;;;10.20;4.78;;;;;;;13.01;68.13;100154.59;5118144;28;20110;-61
2021/09/24 02:44:04;;;;;;;8.55;4.50;;;;;;;12.98;68.32;100169.56;5117983;28;20043;-61
2021/09/24 02:46:30;;;;;;;7.00;4.63;;;;;;;12.94;68.02;100163.97;5117732;28;20047;-60
2021/09/24 02:48:55;;;;;;;7.78;4.50;;;;;;;12.93;68.72;100162.38;5117974;28;20042;-60
2021/09/24 02:51:21;;;;;;;10.70;4.85;;;;;;;12.92;68.26;100165.63;5117717;28;20102;-60
2021/09/24 02:53:46;;;;;;;9.00;5.43;;;;;;;12.91;68.31;100158.38;5117753;28;20030;-61
2021/09/24 02:56:11;;;;;;;8.75;4.32;;;;;;;12.92;68.61;100162.78;5117707;28;20063;-61
2021/09/24 02:58:37;;;;;;;9.23;4.40;;;;;;;12.89;68.37;100160.81;5117758;28;20387;-60
2021/09/24 03:01:02;;;;;;;9.00;5.05;;;;;;;12.89;68.77;100166.47;5115961;28;20046;-61
2021/09/24 03:03:28;;;;;;;10.05;5.32;;;;;;;12.82;68.45;100160.91;5117671;28;20027;-61
2021/09/24 03:05:53;;;;;;;7.55;4.43;;;;;;;12.80;68.72;100166.16;5117752;28;20419;-61
2021/09/24 03:08:19;;;;;;;6.82;4.70;;;;;;;12.77;68.70;100161.38;5117362;28;20058;-60
2021/09/24 03:10:44;;;;;;;6.82;4.88;;;;;;;12.74;68.52;100157.38;5116101;28;20054;-59
2021/09/24 03:13:09;;;;;;;7.18;4.70;;;;;;;12.69;69.00;100152.22;5117304;28;20040;-59
2021/09/24 03:15:35;;;;;;;9.02;4.72;;;;;;;12.65;68.63;100157.09;5117003;28;20432;-60
2021/09/24 03:18:01;;;;;;;10.07;5.15;;;;;;;12.62;69.06;100161.56;5117544;28;20399;-60
2021/09/24 03:20:27;;;;;;;10.63;5.25;;;;;;;12.59;69.11;100162.41;5117253;28;20054;-59
2021/09/24 03:22:53;;;;;;;9.65;5.10;;;;;;;12.56;68.92;100154.78;5116564;28;20517;-60
2021/09/24 03:25:18;;;;;;;9.23;5.28;;;;;;;12.53;69.13;100150.00;5115453;28;20047;-59
2021/09/24 03:27:44;;;;;;;11.00;4.72;;;;;;;12.51;69.15;100158.06;5117028;28;20031;-58
2021/09/24 03:30:10;;;;;;;12.68;4.95;;;;;;;12.45;69.46;100148.50;5116872;28;20031;-59
2021/09/24 03:32:35;;;;;;;9.10;5.40;;;;;;;12.45;69.49;100151.31;5116865;28;20369;-59
2021/09/24 03:35:02;;;;;;;7.85;5.10;;;;;;;12.44;69.47;100146.91;5117230;28;20092;-59
2021/09/24 03:37:27;;;;;;;8.75;5.20;;;;;;;12.41;69.68;100150.56;5116890;28;20324;-59
2021/09/24 03:39:53;;;;;;;7.95;5.28;;;;;;;12.32;69.85;100144.59;5116786;28;20116;-59
2021/09/24 03:42:19;;;;;;;15.68;5.55;;;;;;;12.27;70.23;100139.44;5116864;28;20028;-59
2021/09/24 03:44:44;;;;;;;8.82;4.90;;;;;;;12.20;70.51;100137.50;5116452;28;20037;-59
2021/09/24 03:47:10;;;;;;;8.77;5.03;;;;;;;12.23;70.62;100152.78;5116634;28;20036;-59
2021/09/24 03:49:35;;;;;;;7.50;4.78;;;;;;;12.22;70.33;100156.81;5116779;28;20106;-61
2021/09/24 03:52:01;;;;;;;10.00;4.88;;;;;;;12.18;70.59;100156.06;5116494;28;20391;-54
2021/09/24 03:54:28;;;;;;;8.23;4.93;;;;;;;12.15;70.84;100140.78;5116438;28;20028;-59
2021/09/24 03:56:53;;;;;;;10.02;4.90;;;;;;;12.10;70.97;100134.81;5095263;28;20032;-60
2021/09/24 03:59:19;;;;;;;9.32;5.18;;;;;;;12.08;70.84;100135.25;5113211;28;20364;-60
2021/09/24 04:01:44;;;;;;;9.32;5.70;;;;;;;12.09;70.64;100136.03;5116600;28;20032;-60
2021/09/24 04:04:10;;;;;;;8.82;5.13;;;;;;;12.05;71.00;100145.34;5116138;28;20027;-59
2021/09/24 04:06:35;;;;;;;10.27;5.50;;;;;;;12.05;70.67;100133.25;5116483;28;20050;-59
2021/09/24 04:09:00;;;;;;;11.25;5.00;;;;;;;12.13;70.90;100131.16;5098022;28;20042;-59
2021/09/24 04:11:26;;;;;;;14.18;6.18;;;;;;;12.18;70.43;100134.31;5115493;28;20088;-59
2021/09/24 04:13:51;;;;;;;8.23;4.72;;;;;;;12.18;70.16;100120.22;5098048;28;20027;-59
2021/09/24 04:16:17;;;;;;;9.68;4.80;;;;;;;12.15;70.35;100128.72;5108276;28;20047;-59
2021/09/24 04:18:42;;;;;;;7.28;5.00;;;;;;;12.14;70.30;100124.31;5115246;28;20047;-59
2021/09/24 04:21:08;;;;;;;7.72;4.85;;;;;;;12.10;70.58;100126.38;5104289;28;20316;-60
2021/09/24 04:23:33;;;;;;;10.88;5.30;;;;;;;12.05;70.71;100131.25;5115881;28;20035;-60
2021/09/24 04:25:59;;;;;;;11.85;4.95;;;;;;;12.05;70.60;100144.50;5098003;28;20027;-59
2021/09/24 04:28:24;;;;;;;10.52;5.18;;;;;;;12.05;70.65;100136.06;5115836;28;20087;-59
2021/09/24 04:30:50;;;;;;;15.38;6.55;;;;;;;12.04;70.81;100118.34;5116135;28;20070;-60
2021/09/24 04:33:15;;;;;;;12.85;6.43;;;;;;;12.06;71.26;100127.22;5116189;28;20028;-61
2021/09/24 04:35:41;;;;;;;16.90;9.18;;;;;;;12.08;71.03;100118.34;5115633;28;20039;-60
2021/09/24 04:38:06;;;;;;;14.90;8.05;;;;;;;12.07;70.67;100117.53;5116034;28;20023;-57
2021/09/24 04:40:32;;;;;;;9.90;5.63;;;;;;;12.08;71.07;100123.97;5115617;28;20034;-60
2021/09/24 04:42:57;;;;;;;9.45;5.50;;;;;;;12.10;70.84;100121.53;5104265;28;20461;-60
2021/09/24 04:45:22;;;;;;;9.45;4.65;;;;;;;12.13;70.75;100125.53;5107746;28;20035;-58
2021/09/24 04:47:48;;;;;;;9.90;5.10;;;;;;;12.14;70.69;100127.94;5107861;28;20046;-59
2021/09/24 04:50:13;;;;;;;9.60;4.70;;;;;;;12.17;70.46;100131.91;5104402;28;20119;-60
2021/09/24 04:52:39;;;;;;;7.30;3.92;;;;;;;12.21;70.47;100132.66;5111802;28;20132;-61
2021/09/24 04:55:06;;;;;;;9.00;4.57;;;;;;;12.27;70.26;100128.97;5105596;28;20032;-61
2021/09/24 04:57:32;;;;;;;7.30;4.35;;;;;;;12.31;70.36;100128.91;5112741;28;20482;-60
2021/09/24 04:59:58;;;;;;;9.52;4.30;;;;;;;12.30;69.86;100138.59;5115087;28;20127;-60
2021/09/24 05:02:23;;;;;;;7.55;3.85;;;;;;;12.29;70.68;100148.28;5115192;28;20106;-56
2021/09/24 05:04:48;;;;;;;9.38;4.45;;;;;;;12.29;70.41;100148.28;5115342;28;20149;-60
2021/09/24 05:07:14;;;;;;;10.65;4.60;;;;;;;12.31;70.47;100148.66;5115384;28;20040;-60
2021/09/24 05:09:39;;;;;;;10.38;4.40;;;;;;;12.34;70.32;100128.09;5109077;28;20030;-57
2021/09/24 05:12:05;;;;;;;11.75;4.53;;;;;;;12.35;70.94;100138.97;5115444;28;20031;-61
2021/09/24 05:14:31;;;;;;;10.32;4.95;;;;;;;12.41;70.65;100144.91;5115530;28;20315;-59
2021/09/24 05:16:56;;;;;;;15.05;4.55;;;;;;;12.47;70.39;100146.06;5115489;28;20036;-61
2021/09/24 05:19:21;;;;;;;8.85;4.07;;;;;;;12.54;70.62;100148.78;5115515;28;20055;-60
2021/09/24 05:21:47;;;;;;;7.18;4.05;;;;;;;12.61;70.06;100140.25;5112932;28;20036;-61
2021/09/24 05:24:13;;;;;;;9.23;4.32;;;;;;;12.67;70.21;100149.03;5116792;28;20043;-60
2021/09/24 05:26:38;;;;;;;7.68;3.70;;;;;;;12.76;69.83;100142.84;5119384;28;20043;-60
2021/09/24 05:29:04;;;;;;;10.88;4.22;;;;;;;12.86;69.53;100151.16;5119416;28;20031;-61
2021/09/24 05:31:29;;;;;;;9.10;4.05;;;;;;;12.94;69.80;100140.59;5119454;28;20031;-60
2021/09/24 05:33:55;;;;;;;6.57;3.90;;;;;;;13.01;69.37;100146.13;5119279;28;20028;-61
2021/09/24 05:36:20;;;;;;;7.82;4.47;;;;;;;13.04;69.07;100153.75;5119517;28;20114;-60
2021/09/24 05:38:46;;;;;;;6.60;3.80;;;;;;;13.08;69.34;100148.84;5118655;28;20454;-60
2021/09/24 05:41:11;;;;;;;7.07;4.07;;;;;;;13.14;68.63;100149.94;5119127;28;20031;-60
2021/09/24 05:43:37;;;;;;;8.18;4.20;;;;;;;13.18;68.94;100153.56;5119308;28;20415;-60
2021/09/24 05:46:03;;;;;;;7.50;3.63;;;;;;;13.21;69.25;100158.34;5118750;28;20031;-59
2021/09/24 05:48:29;;;;;;;7.38;4.18;;;;;;;13.25;69.05;100149.84;5119114;28;20408;-60
2021/09/24 05:50:56;;;;;;;13.43;4.65;;;;;;;13.27;68.57;100144.56;5118561;28;20046;-60
2021/09/24 05:53:21;;;;;;;8.07;4.22;;;;;;;13.29;69.33;100144.94;5118758;28;20034;-60
2021/09/24 05:55:47;;;;;;;8.15;4.55;;;;;;;13.34;68.97;100140.81;5118553;28;20024;-56
2021/09/24 05:58:12;;;;;;;8.23;4.20;;;;;;;13.39;68.63;100151.63;5118962;28;20331;-59
2021/09/24 06:00:37;;;;;;;7.30;3.80;;;;;;;13.46;68.84;100143.06;5118584;28;20028;-60
2021/09/24 06:03:03;;;;;;;6.07;4.43;;;;;;;13.53;68.52;100151.41;5118550;28;20165;-60
2021/09/24 06:05:28;;;;;;;10.25;4.60;;;;;;;13.59;67.91;100156.13;5118774;28;20032;-60
2021/09/24 06:07:53;;;;;;;6.10;4.15;;;;;;;13.67;68.77;100145.50;5118316;28;20068;-60
2021/09/24 06:10:19;;;;;;;6.85;4.15;;;;;;;13.77;68.56;100147.34;5118596;28;20031;-58
2021/09/24 06:12:48;;;;;;;7.32;4.38;;;;;;;13.87;68.48;100142.72;5118291;28;20028;-60
2021/09/24 06:15:14;;;;;;;8.30;4.03;;;;;;;13.95;68.21;100140.56;5118670;28;20027;-60
2021/09/24 06:17:40;;;;;;;9.18;3.85;;;;;;;14.06;67.39;100141.97;5118554;28;20027;-61
2021/09/24 06:20:06;;;;;;;13.13;4.05;;;;;;;14.14;67.85;100143.44;5106628;28;20483;-60
2021/09/24 06:22:32;;;;;;;5.60;3.85;;;;;;;14.27;66.97;100145.63;5117872;28;20031;-60
2021/09/24 06:24:57;;;;;;;9.70;4.07;;;;;;;14.37;66.92;100145.41;5117945;28;20036;-60
2021/09/24 06:27:23;;;;;;;7.20;3.75;;;;;;;14.45;66.49;100138.41;5107132;28;20121;-59
2021/09/24 06:29:53;;;;;;;7.63;3.67;;;;;;;14.51;67.30;100139.47;5118033;28;20031;-59
2021/09/24 06:32:20;;;;;;;6.78;3.90;;;;;;;14.60;67.38;100138.91;5117847;28;20399;-60
2021/09/24 06:34:46;;;;;;;8.18;4.32;;;;;;;14.68;67.12;100145.22;5117046;28;20600;-60
2021/09/24 06:37:12;;;;;;;6.72;3.97;;;;;;;14.75;66.86;100145.03;5113994;28;20028;-60
2021/09/24 06:39:37;;;;;;;6.32;4.15;;;;;;;14.81;67.39;100152.59;5118071;28;20445;-60
2021/09/24 06:42:03;;;;;;;8.45;4.43;;;;;;;14.88;67.20;100157.31;5117860;28;20385;-60
2021/09/24 06:44:29;;;;;;;11.55;4.57;;;;;;;14.95;66.01;100151.47;5097685;28;20110;-60
2021/09/24 06:46:55;;;;;;;8.52;3.58;;;;;;;15.08;67.54;100155.25;5099713;28;20073;-60
2021/09/24 06:49:25;;;;;;;7.13;3.90;;;;;;;15.26;67.62;100143.47;5117724;28;20035;-60
2021/09/24 06:51:54;;;;;;;7.13;3.90;;;;;;;15.44;66.93;100141.03;5117517;28;20024;-60
2021/09/24 06:54:20;;;;;;;8.98;3.92;;;;;;;15.61;66.75;100141.84;5117370;28;20407;-60
2021/09/24 06:56:46;;;;;;;7.32;4.00;;;;;;;15.76;66.46;100148.75;5099414;28;20040;-60
2021/09/24 06:59:13;;;;;;;6.43;3.90;;;;;;;15.92;67.10;100150.78;5117704;28;20381;-61
2021/09/24 07:01:39;;;;;;;8.57;4.00;;;;;;;16.06;65.65;100149.56;5099597;28;20035;-61
2021/09/24 07:04:04;;;;;;;5.63;3.50;;;;;;;16.20;64.96;100154.88;5117639;28;20088;-62
2021/09/24 07:06:30;;;;;;;6.97;3.92;;;;;;;16.31;64.79;100166.72;5109600;28;20040;-59
2021/09/24 07:08:55;;;;;;;10.82;3.92;;;;;;;16.43;64.36;100170.81;5117376;28;20039;-60
2021/09/24 07:11:22;;;;;;;10.40;3.88;;;;;;;16.50;63.79;100179.16;5117241;28;20035;-61
2021/09/24 07:13:48;;;;;;;4.47;3.60;;;;;;;16.65;64.70;100200.19;5117310;28;20327;-61
2021/09/24 07:16:13;;;;;;;7.78;3.72;;;;;;;16.78;63.65;100188.13;5117282;28;20110;-61
2021/09/24 07:18:39;;;;;;;4.95;3.65;;;;;;;16.95;64.18;100190.41;5116852;28;20127;-60
2021/09/24 07:21:04;;;;;;;7.50;3.58;;;;;;;17.12;63.76;100184.66;5116905;28;20039;-61
2021/09/24 07:23:29;;;;;;;7.28;4.10;;;;;;;17.29;64.45;100200.38;5117167;28;20096;-61
2021/09/24 07:25:59;;;;;;;10.80;4.07;;;;;;;17.46;63.92;100196.16;4588750;28;20005017;-61
2021/09/24 07:28:25;;;;;;;6.95;3.65;;;;;;;17.64;62.85;100191.94;5116967;28;20219;-62
2021/09/24 07:30:50;;;;;;;5.07;3.67;;;;;;;17.72;62.20;100188.44;5116983;28;20380;-60
2021/09/24 07:33:15;;;;;;;6.75;4.30;;;;;;;17.84;61.81;100201.06;5095710;28;20323;-61
2021/09/24 07:35:41;;;;;;;10.60;3.80;;;;;;;17.89;61.24;100191.94;5114694;28;20319;-61
2021/09/24 07:38:06;;;;;;;6.93;3.63;;;;;;;17.95;61.17;100184.41;5117077;28;20319;-61
2021/09/24 07:40:32;;;;;;;5.15;3.42;;;;;;;17.97;61.26;100187.59;5116883;28;20039;-61
2021/09/24 07:42:57;;;;;;;8.23;3.90;;;;;;;18.05;62.76;100190.97;5116984;28;20035;-61
2021/09/24 07:45:23;;;;;;;7.93;3.42;;;;;;;18.13;61.53;100193.13;5116607;28;20063;-61
2021/09/24 07:47:49;;;;;;;5.05;3.28;;;;;;;18.17;61.11;100190.97;5116043;28;20437;-61
2021/09/24 07:50:15;;;;;;;11.00;3.75;;;;;;;18.25;61.70;100191.50;5116237;28;20038;-61
2021/09/24 07:52:40;;;;;;;10.13;3.88;;;;;;;18.33;61.75;100186.34;5116076;28;20095;-61
2021/09/24 07:55:06;;;;;;;7.18;3.90;;;;;;;18.43;61.04;100193.72;5116157;28;20023;-60
2021/09/24 07:57:32;;;;;;;4.32;3.65;;;;;;;18.54;61.27;100191.25;5115993;28;20160;-61
2021/09/24 07:59:57;;;;;;;7.90;3.50;;;;;;;18.58;61.08;100194.75;5116461;28;20120;-62
2021/09/24 08:02:23;;;;;;;6.70;3.53;;;;;;;18.63;61.03;100191.38;5116464;28;20132;-61
2021/09/24 08:04:49;;;;;;;6.07;4.00;;;;;;;18.61;60.55;100196.69;5115516;28;20050;-60
2021/09/24 08:07:14;;;;;;;6.25;3.78;;;;;;;18.61;60.99;100199.53;5116299;28;20052;-61
2021/09/24 08:09:40;;;;;;;7.50;4.28;;;;;;;18.59;61.03;100210.59;5115459;28;20153;-62
2021/09/24 08:12:06;;;;;;;7.50;4.22;;;;;;;18.55;60.73;100198.53;5115836;28;20055;-60
2021/09/24 08:14:32;;;;;;;16.83;5.35;;;;;;;18.54;61.10;100205.50;5115691;28;20030;-60
2021/09/24 08:16:57;;;;;;;9.57;5.22;;;;;;;18.58;61.47;100211.03;5116044;28;21131;-60
2021/09/24 08:19:23;;;;;;;8.77;4.72;;;;;;;18.60;60.82;100212.16;5112910;28;20051;-61
2021/09/24 08:21:48;;;;;;;8.82;4.75;;;;;;;18.63;60.27;100210.50;5115755;28;20032;-61
2021/09/24 08:24:14;;;;;;;8.60;3.85;;;;;;;18.64;60.41;100207.19;5115692;28;20034;-60
2021/09/24 08:26:39;;;;;;;11.25;5.47;;;;;;;18.63;60.26;100204.81;5115499;28;20034;-61
2021/09/24 08:29:04;;;;;;;11.77;5.95;;;;;;;18.61;60.04;100213.75;5115945;28;20093;-61
2021/09/24 08:31:30;;;;;;;7.20;5.15;;;;;;;18.63;61.11;100217.00;5116032;28;20430;-60
2021/09/24 08:33:58;;;;;;;7.95;5.13;;;;;;;18.64;60.13;100212.91;5115737;28;20068;-61
2021/09/24 08:36:24;;;;;;;13.60;5.55;;;;;;;18.66;60.37;100218.91;5116128;28;20036;-61
2021/09/24 08:38:49;;;;;;;22.80;6.05;;;;;;;18.66;60.23;100216.06;5115437;28;20318;-63
2021/09/24 08:41:14;;;;;;;9.68;5.57;;;;;;;18.65;60.62;100214.47;5116048;28;20073;-60
2021/09/24 08:43:40;;;;;;;7.50;5.00;;;;;;;18.65;60.69;100214.47;5115671;28;20050;-57
2021/09/24 08:46:06;;;;;;;8.35;5.35;;;;;;;18.64;60.81;100217.78;5102447;28;20027;-57
2021/09/24 08:48:34;;;;;;;10.70;5.22;;;;;;;18.62;61.03;100221.06;5115613;28;20044;-59
2021/09/24 08:51:00;;;;;;;13.13;5.28;;;;;;;18.60;60.78;100212.16;5115809;28;20027;-61
2021/09/24 08:53:26;;;;;;;10.63;4.95;;;;;;;18.61;61.33;100218.66;5115674;28;20027;-60
2021/09/24 08:55:52;;;;;;;8.32;5.43;;;;;;;18.61;61.28;100213.75;5115510;28;20059;-62
2021/09/24 08:58:18;;;;;;;12.00;5.28;;;;;;;18.60;61.50;100200.78;5117716;28;20027;-62
2021/09/24 09:00:44;;;;;;;8.93;5.00;;;;;;;18.60;61.84;100208.53;5119612;28;20031;-61
2021/09/24 09:03:14;;;;;;;9.75;4.72;;;;;;;18.61;62.26;100207.28;5120058;28;20040;-61
2021/09/24 09:05:45;;;;;;;8.75;4.90;;;;;;;18.62;62.23;100201.16;5120173;28;20035;-61
2021/09/24 09:08:31;;;;;;;6.25;4.47;;;;;;;18.64;61.41;100212.09;5119813;28;20032;-61
2021/09/24 09:11:14;;;;;;;7.82;4.53;;;;;;;18.68;61.84;100207.06;5119592;28;20135;-62
2021/09/24 09:13:54;;;;;;;7.20;4.72;;;;;;;18.70;61.62;100215.94;5119572;28;20028;-62
2021/09/24 09:16:28;;;;;;;6.90;3.83;;;;;;;18.72;61.52;100202.81;5101355;28;20031;-58
2021/09/24 09:19:17;;;;;;;13.38;4.18;;;;;;;18.76;61.80;100209.19;5119428;28;20052;-61
2021/09/24 09:21:46;;;;;;;8.95;4.38;;;;;;;18.81;61.66;100205.72;5098025;28;20115;-58
2021/09/24 09:24:14;;;;;;;10.15;4.28;;;;;;;18.89;61.79;100211.94;5115026;28;20334;-62
2021/09/24 09:26:39;;;;;;;9.27;4.38;;;;;;;18.95;61.85;100200.78;5119387;28;20070;-60
2021/09/24 09:29:09;;;;;;;8.10;3.78;;;;;;;19.03;60.92;100216.31;5119709;28;20051;-60
2021/09/24 09:31:34;;;;;;;7.45;4.22;;;;;;;19.09;60.41;100205.91;5119370;28;20074;-60
2021/09/24 09:34:03;;;;;;;8.85;4.03;;;;;;;19.11;59.59;100201.31;5119242;28;20103;-61
2021/09/24 09:36:33;;;;;;;7.45;3.97;;;;;;;19.17;60.39;100207.22;5098000;28;20086;-61
2021/09/24 09:38:59;;;;;;;7.38;4.10;;;;;;;19.20;60.91;100209.16;5116274;28;20490;-60
2021/09/24 09:41:26;;;;;;;7.00;4.40;;;;;;;19.24;60.80;100195.56;5119331;28;20110;-61
2021/09/24 09:43:56;;;;;;;7.68;4.00;;;;;;;19.32;61.68;100199.69;5119279;28;20097;-60
2021/09/24 09:46:28;;;;;;;8.32;4.05;;;;;;;19.42;61.57;100201.31;5118897;28;20028;-61
2021/09/24 09:49:19;;;;;;;10.55;3.85;;;;;;;19.60;59.58;100199.84;5119040;28;20023;-61
2021/09/24 09:51:47;;;;;;;9.70;4.22;;;;;;;19.68;58.82;100198.28;5115048;28;20078;-61
2021/09/24 09:54:28;;;;;;;11.18;3.63;;;;;;;19.81;58.56;100195.31;5118956;28;20435;-60
2021/09/24 09:57:10;;;;;;;4.10;3.00;;;;;;;19.93;58.65;100200.09;5118721;28;20115;-61
2021/09/24 09:59:35;;;;;;;;;;;;;;;20.03;58.04;100190.31;5119248;28;20065;-61
2021/09/24 10:02:12;;;;;;;7.43;2.80;;;;;;;20.08;57.36;100201.09;5118914;28;20263;-61
2021/09/24 10:04:39;;;;;;;6.75;2.80;;;;;;;20.13;57.39;100197.59;5100555;28;20028;-61
2021/09/24 10:07:16;;;;;;;8.27;2.80;;;;;;;20.22;56.61;100196.81;5118717;28;20084;-60
2021/09/24 10:09:42;;;;;;;6.15;2.70;;;;;;;20.31;56.68;100202.56;5117872;28;20032;-60
2021/09/24 10:12:34;;;;;;;8.77;2.90;;;;;;;20.42;55.53;100202.88;5118755;28;20031;-62
2021/09/24 10:14:59;;;;;;;6.53;2.70;;;;;;;20.43;55.31;100195.91;5115481;28;20028;-60
2021/09/24 10:17:26;;;;;;;5.95;2.40;;;;;;;20.44;55.45;100199.56;5118657;28;20098;-61
2021/09/24 10:19:54;;;;;;;7.18;2.90;;;;;;;20.56;56.25;100204.34;5118031;28;20048;-61
2021/09/24 10:22:20;;;;;;;7.82;2.92;;;;;;;20.70;55.34;100197.19;5118754;28;20031;-61
2021/09/24 10:24:46;;;;;;;3.90;2.67;;;;;;;20.81;54.65;100191.75;5118154;28;20434;-61
2021/09/24 10:27:17;;;;;;;5.22;2.90;;;;;;;20.92;55.07;100194.94;5118191;28;20016;-61
2021/09/24 10:29:46;;;;;;;7.50;3.50;;;;;;;21.08;53.92;100194.56;5118189;28;20369;-59
2021/09/24 10:32:13;;;;;;;7.90;2.38;;;;;;;21.14;53.71;100192.66;5118312;28;20311;-62
2021/09/24 10:35:03;;;;;;;5.60;2.28;;;;;;;21.21;52.75;100195.16;5118195;28;20024;-61
2021/09/24 10:37:31;;;;;;;3.53;2.20;;;;;;;21.28;53.25;100189.13;5118415;28;20045;-62
2021/09/24 10:39:59;;;;;;;4.35;1.92;;;;;;;21.32;53.08;100197.53;5118024;28;20522;-61
2021/09/24 10:42:34;;;;;;;9.18;2.47;;;;;;;21.46;52.54;100187.50;5118019;28;20065;-61
2021/09/24 10:45:02;;;;;;;4.60;2.50;;;;;;;21.62;53.30;100200.59;5117646;28;20062;-61
2021/09/24 10:47:49;;;;;;;8.48;2.55;;;;;;;21.72;52.40;100197.22;5099912;28;20100;-61
2021/09/24 10:50:33;;;;;;;13.75;2.33;;;;;;;21.81;51.47;100187.78;5117956;28;20027;-62
2021/09/24 10:55:47;;;;;;;20.65;2.45;;;;;;;21.85;50.96;100183.47;5117976;28;20487;-61
2021/09/24 10:58:27;;;;;;;12.68;2.72;;;;;;;21.82;50.16;100195.88;5117820;28;20035;-61
2021/09/24 11:00:59;;;;;;;4.50;2.50;;;;;;;21.79;51.17;100196.06;5117326;28;20110;-61
2021/09/24 11:03:29;;;;;;;4.47;2.30;;;;;;;21.83;51.57;100190.97;5117689;28;20031;-61
2021/09/24 11:05:54;;;;;;;5.65;2.33;;;;;;;21.83;50.88;100183.16;5116797;28;20110;-61
2021/09/24 11:08:29;;;;;;;8.15;2.38;;;;;;;21.87;52.30;100178.06;5117440;28;20107;-61
2021/09/24 11:11:13;;;;;;;5.53;2.00;;;;;;;21.93;51.31;100171.69;5117211;28;20419;-61
2021/09/24 11:13:44;;;;;;;2.50;2.08;;;;;;;22.02;52.08;100163.81;5117210;28;20085;-61
2021/09/24 11:16:14;;;;;;;;;;;;;;;22.04;50.61;100163.38;5117822;28;20036;-61
2021/09/24 11:18:53;;;;;;;6.28;2.22;;;;;;;22.06;50.18;100167.31;5116607;28;19920;-61
2021/09/24 11:21:44;;;;;;;8.65;2.65;;;;;;;22.12;50.08;100155.97;5114435;28;20065;-61
2021/09/24 11:24:44;;;;;;;19.17;2.70;;;;;;;22.15;50.41;100150.06;5115005;28;20569;-61
2021/09/24 11:27:14;;;;;;;5.97;2.15;;;;;;;22.13;50.37;100151.84;5071009;28;20292;-61